<?xml version="1.0" encoding="UTF-8" standalone="no" ?>
<gpx xmlns="http://www.topografix.com/GPX/1/1" xmlns:xsi="http://www.w3.org/2001/XMLSchema-instance" xsi:schemaLocation="http://www.topografix.com/GPX/1/1 http://www.topografix.com/GPX/1/1/gpx.xsd" version="1.1" creator="VisuGPX - https://www.visugpx.com">
  <metadata>
    <name>Reze_Autour_8-19km</name>
    <desc><![CDATA[gnerando idor:5792578_5792726_5814453_5825877_6470772_8005623_8320604_9624624__]]></desc>
  </metadata>
  <trk>
    <name><![CDATA[Reze _JaguereEtIlette_11 km-5825877]]></name>
    <extensions>
      <line xmlns="http://www.topografix.com/GPX/gpx_style/0/2">
        <color>000088</color>
        <width>4</width>
      </line>
    </extensions>
    <trkseg>
      <trkpt lat="47.18143" lon="-1.52743">
        <ele>8</ele>
        <time>2023-11-11T18:52:04Z</time>
      </trkpt>
      <trkpt lat="47.18166" lon="-1.52725">
        <ele>8</ele>
        <time>2023-11-11T18:52:39Z</time>
      </trkpt>
      <trkpt lat="47.18157" lon="-1.52666">
        <ele>9</ele>
        <time>2023-11-11T18:53:34Z</time>
      </trkpt>
      <trkpt lat="47.18143" lon="-1.526">
        <ele>6</ele>
        <time>2023-11-11T18:54:36Z</time>
      </trkpt>
      <trkpt lat="47.1814" lon="-1.5257">
        <ele>6</ele>
        <time>2023-11-11T18:55:04Z</time>
      </trkpt>
      <trkpt lat="47.18117" lon="-1.52558">
        <ele>6</ele>
        <time>2023-11-11T18:55:36Z</time>
      </trkpt>
      <trkpt lat="47.18068" lon="-1.52574">
        <ele>7</ele>
        <time>2023-11-11T18:56:43Z</time>
      </trkpt>
      <trkpt lat="47.1804" lon="-1.52602">
        <ele>8</ele>
        <time>2023-11-11T18:57:29Z</time>
      </trkpt>
      <trkpt lat="47.18019" lon="-1.52628">
        <ele>9</ele>
        <time>2023-11-11T18:58:05Z</time>
      </trkpt>
      <trkpt lat="47.18032" lon="-1.52647">
        <ele>9</ele>
        <time>2023-11-11T18:58:30Z</time>
      </trkpt>
      <trkpt lat="47.18009" lon="-1.52679">
        <ele>10</ele>
        <time>2023-11-11T18:59:12Z</time>
      </trkpt>
      <trkpt lat="47.17979" lon="-1.52705">
        <ele>12</ele>
        <time>2023-11-11T18:59:58Z</time>
      </trkpt>
      <trkpt lat="47.17948" lon="-1.52765">
        <ele>14</ele>
        <time>2023-11-11T19:01:07Z</time>
      </trkpt>
      <trkpt lat="47.17937" lon="-1.52792">
        <ele>14</ele>
        <time>2023-11-11T19:01:35Z</time>
      </trkpt>
      <trkpt lat="47.17932" lon="-1.52812">
        <ele>14</ele>
        <time>2023-11-11T19:01:55Z</time>
      </trkpt>
      <trkpt lat="47.17905" lon="-1.52839">
        <ele>15</ele>
        <time>2023-11-11T19:02:38Z</time>
      </trkpt>
      <trkpt lat="47.17887" lon="-1.5287">
        <ele>16</ele>
        <time>2023-11-11T19:03:15Z</time>
      </trkpt>
      <trkpt lat="47.17861" lon="-1.52907">
        <ele>18</ele>
        <time>2023-11-11T19:04:03Z</time>
      </trkpt>
      <trkpt lat="47.17842" lon="-1.52929">
        <ele>19</ele>
        <time>2023-11-11T19:04:36Z</time>
      </trkpt>
      <trkpt lat="47.17808" lon="-1.52962">
        <ele>21</ele>
        <time>2023-11-11T19:05:30Z</time>
      </trkpt>
      <trkpt lat="47.17794" lon="-1.52967">
        <ele>21</ele>
        <time>2023-11-11T19:05:49Z</time>
      </trkpt>
      <trkpt lat="47.17764" lon="-1.52971">
        <ele>21</ele>
        <time>2023-11-11T19:06:29Z</time>
      </trkpt>
      <trkpt lat="47.1772" lon="-1.53002">
        <ele>23</ele>
        <time>2023-11-11T19:07:35Z</time>
      </trkpt>
      <trkpt lat="47.17694" lon="-1.53014">
        <ele>24</ele>
        <time>2023-11-11T19:08:11Z</time>
      </trkpt>
      <trkpt lat="47.17691" lon="-1.53025">
        <ele>24</ele>
        <time>2023-11-11T19:08:22Z</time>
      </trkpt>
      <trkpt lat="47.17693" lon="-1.53042">
        <ele>23</ele>
        <time>2023-11-11T19:08:37Z</time>
      </trkpt>
      <trkpt lat="47.17682" lon="-1.53062">
        <ele>23</ele>
        <time>2023-11-11T19:09:01Z</time>
      </trkpt>
      <trkpt lat="47.17661" lon="-1.53071">
        <ele>23</ele>
        <time>2023-11-11T19:09:30Z</time>
      </trkpt>
      <trkpt lat="47.17636" lon="-1.53068">
        <ele>23</ele>
        <time>2023-11-11T19:10:03Z</time>
      </trkpt>
      <trkpt lat="47.17601" lon="-1.53087">
        <ele>23</ele>
        <time>2023-11-11T19:10:53Z</time>
      </trkpt>
      <trkpt lat="47.17566" lon="-1.53102">
        <ele>23</ele>
        <time>2023-11-11T19:11:42Z</time>
      </trkpt>
      <trkpt lat="47.17546" lon="-1.53116">
        <ele>23</ele>
        <time>2023-11-11T19:12:11Z</time>
      </trkpt>
      <trkpt lat="47.17525" lon="-1.53127">
        <ele>23</ele>
        <time>2023-11-11T19:12:41Z</time>
      </trkpt>
      <trkpt lat="47.17507" lon="-1.53146">
        <ele>23</ele>
        <time>2023-11-11T19:13:11Z</time>
      </trkpt>
      <trkpt lat="47.1748" lon="-1.53169">
        <ele>24</ele>
        <time>2023-11-11T19:13:52Z</time>
      </trkpt>
      <trkpt lat="47.17463" lon="-1.5318">
        <ele>24</ele>
        <time>2023-11-11T19:14:17Z</time>
      </trkpt>
      <trkpt lat="47.17438" lon="-1.53194">
        <ele>25</ele>
        <time>2023-11-11T19:14:53Z</time>
      </trkpt>
      <trkpt lat="47.17425" lon="-1.53229">
        <ele>26</ele>
        <time>2023-11-11T19:15:29Z</time>
      </trkpt>
      <trkpt lat="47.17407" lon="-1.53267">
        <ele>27</ele>
        <time>2023-11-11T19:16:11Z</time>
      </trkpt>
      <trkpt lat="47.17401" lon="-1.53307">
        <ele>28</ele>
        <time>2023-11-11T19:16:48Z</time>
      </trkpt>
      <trkpt lat="47.17407" lon="-1.53323">
        <ele>28</ele>
        <time>2023-11-11T19:17:05Z</time>
      </trkpt>
      <trkpt lat="47.17403" lon="-1.53362">
        <ele>28</ele>
        <time>2023-11-11T19:17:40Z</time>
      </trkpt>
      <trkpt lat="47.17402" lon="-1.53398">
        <ele>28</ele>
        <time>2023-11-11T19:18:13Z</time>
      </trkpt>
      <trkpt lat="47.17414" lon="-1.53463">
        <ele>26</ele>
        <time>2023-11-11T19:19:14Z</time>
      </trkpt>
      <trkpt lat="47.17429" lon="-1.5351">
        <ele>27</ele>
        <time>2023-11-11T19:20:01Z</time>
      </trkpt>
      <trkpt lat="47.1741" lon="-1.53534">
        <ele>26</ele>
        <time>2023-11-11T19:20:35Z</time>
      </trkpt>
      <trkpt lat="47.17427" lon="-1.53575">
        <ele>27</ele>
        <time>2023-11-11T19:21:18Z</time>
      </trkpt>
      <trkpt lat="47.17479" lon="-1.53655">
        <ele>28</ele>
        <time>2023-11-11T19:22:59Z</time>
      </trkpt>
      <trkpt lat="47.17533" lon="-1.5373">
        <ele>30</ele>
        <time>2023-11-11T19:24:38Z</time>
      </trkpt>
      <trkpt lat="47.17452" lon="-1.53852">
        <ele>30</ele>
        <time>2023-11-11T19:27:12Z</time>
      </trkpt>
      <trkpt lat="47.17466" lon="-1.53878">
        <ele>30</ele>
        <time>2023-11-11T19:27:43Z</time>
      </trkpt>
      <trkpt lat="47.17433" lon="-1.53979">
        <ele>31</ele>
        <time>2023-11-11T19:29:24Z</time>
      </trkpt>
      <trkpt lat="47.17415" lon="-1.54055">
        <ele>32</ele>
        <time>2023-11-11T19:30:37Z</time>
      </trkpt>
      <trkpt lat="47.17399" lon="-1.54092">
        <ele>32</ele>
        <time>2023-11-11T19:31:17Z</time>
      </trkpt>
      <trkpt lat="47.17389" lon="-1.54082">
        <ele>32</ele>
        <time>2023-11-11T19:31:33Z</time>
      </trkpt>
      <trkpt lat="47.17393" lon="-1.54096">
        <ele>32</ele>
        <time>2023-11-11T19:31:47Z</time>
      </trkpt>
      <trkpt lat="47.1739" lon="-1.54123">
        <ele>33</ele>
        <time>2023-11-11T19:32:12Z</time>
      </trkpt>
      <trkpt lat="47.17388" lon="-1.54163">
        <ele>33</ele>
        <time>2023-11-11T19:32:48Z</time>
      </trkpt>
      <trkpt lat="47.17372" lon="-1.54153">
        <ele>33</ele>
        <time>2023-11-11T19:33:11Z</time>
      </trkpt>
      <trkpt lat="47.17365" lon="-1.54171">
        <ele>34</ele>
        <time>2023-11-11T19:33:30Z</time>
      </trkpt>
      <trkpt lat="47.17311" lon="-1.54348">
        <ele>34</ele>
        <time>2023-11-11T19:36:26Z</time>
      </trkpt>
      <trkpt lat="47.17295" lon="-1.54348">
        <ele>35</ele>
        <time>2023-11-11T19:36:47Z</time>
      </trkpt>
      <trkpt lat="47.17288" lon="-1.5446">
        <ele>35</ele>
        <time>2023-11-11T19:38:30Z</time>
      </trkpt>
      <trkpt lat="47.17276" lon="-1.5448">
        <ele>36</ele>
        <time>2023-11-11T19:38:54Z</time>
      </trkpt>
      <trkpt lat="47.17272" lon="-1.54509">
        <ele>36</ele>
        <time>2023-11-11T19:39:21Z</time>
      </trkpt>
      <trkpt lat="47.1733" lon="-1.54541">
        <ele>35</ele>
        <time>2023-11-11T19:40:43Z</time>
      </trkpt>
      <trkpt lat="47.17376" lon="-1.54574">
        <ele>34</ele>
        <time>2023-11-11T19:41:52Z</time>
      </trkpt>
      <trkpt lat="47.1732" lon="-1.54671">
        <ele>33</ele>
        <time>2023-11-11T19:43:47Z</time>
      </trkpt>
      <trkpt lat="47.17418" lon="-1.5477">
        <ele>32</ele>
        <time>2023-11-11T19:46:26Z</time>
      </trkpt>
      <trkpt lat="47.17336" lon="-1.54883">
        <ele>33</ele>
        <time>2023-11-11T19:48:56Z</time>
      </trkpt>
      <trkpt lat="47.1731" lon="-1.54883">
        <ele>33</ele>
        <time>2023-11-11T19:49:30Z</time>
      </trkpt>
      <trkpt lat="47.17277" lon="-1.54931">
        <ele>34</ele>
        <time>2023-11-11T19:50:32Z</time>
      </trkpt>
      <trkpt lat="47.17251" lon="-1.54913">
        <ele>34</ele>
        <time>2023-11-11T19:51:11Z</time>
      </trkpt>
      <trkpt lat="47.17171" lon="-1.55027">
        <ele>38</ele>
        <time>2023-11-11T19:53:39Z</time>
      </trkpt>
      <trkpt lat="47.17197" lon="-1.55059">
        <ele>37</ele>
        <time>2023-11-11T19:54:24Z</time>
      </trkpt>
      <trkpt lat="47.17076" lon="-1.5527">
        <ele>38</ele>
        <time>2023-11-11T19:58:35Z</time>
      </trkpt>
      <trkpt lat="47.17095" lon="-1.55287">
        <ele>38</ele>
        <time>2023-11-11T19:59:05Z</time>
      </trkpt>
      <trkpt lat="47.16988" lon="-1.55477">
        <ele>32</ele>
        <time>2023-11-11T20:02:48Z</time>
      </trkpt>
      <trkpt lat="47.17004" lon="-1.5548">
        <ele>32</ele>
        <time>2023-11-11T20:03:10Z</time>
      </trkpt>
      <trkpt lat="47.17088" lon="-1.55563">
        <ele>34</ele>
        <time>2023-11-11T20:05:25Z</time>
      </trkpt>
      <trkpt lat="47.17107" lon="-1.55599">
        <ele>35</ele>
        <time>2023-11-11T20:06:06Z</time>
      </trkpt>
      <trkpt lat="47.17097" lon="-1.5562">
        <ele>34</ele>
        <time>2023-11-11T20:06:29Z</time>
      </trkpt>
      <trkpt lat="47.1709" lon="-1.55636">
        <ele>33</ele>
        <time>2023-11-11T20:06:47Z</time>
      </trkpt>
      <trkpt lat="47.17083" lon="-1.55652">
        <ele>32</ele>
        <time>2023-11-11T20:07:04Z</time>
      </trkpt>
      <trkpt lat="47.17019" lon="-1.55775">
        <ele>30</ele>
        <time>2023-11-11T20:09:25Z</time>
      </trkpt>
      <trkpt lat="47.16997" lon="-1.55818">
        <ele>28</ele>
        <time>2023-11-11T20:10:13Z</time>
      </trkpt>
      <trkpt lat="47.16913" lon="-1.55977">
        <ele>27</ele>
        <time>2023-11-11T20:13:16Z</time>
      </trkpt>
      <trkpt lat="47.16898" lon="-1.55975">
        <ele>27</ele>
        <time>2023-11-11T20:13:36Z</time>
      </trkpt>
      <trkpt lat="47.16857" lon="-1.56013">
        <ele>27</ele>
        <time>2023-11-11T20:14:41Z</time>
      </trkpt>
      <trkpt lat="47.16831" lon="-1.56016">
        <ele>27</ele>
        <time>2023-11-11T20:15:16Z</time>
      </trkpt>
      <trkpt lat="47.16768" lon="-1.56016">
        <ele>25</ele>
        <time>2023-11-11T20:16:40Z</time>
      </trkpt>
      <trkpt lat="47.16666" lon="-1.56019">
        <ele>26</ele>
        <time>2023-11-11T20:18:56Z</time>
      </trkpt>
      <trkpt lat="47.16578" lon="-1.56025">
        <ele>27</ele>
        <time>2023-11-11T20:20:53Z</time>
      </trkpt>
      <trkpt lat="47.16475" lon="-1.5598">
        <ele>31</ele>
        <time>2023-11-11T20:23:17Z</time>
      </trkpt>
      <trkpt lat="47.16291" lon="-1.55884">
        <ele>33</ele>
        <time>2023-11-11T20:27:37Z</time>
      </trkpt>
      <trkpt lat="47.16201" lon="-1.5588">
        <ele>33</ele>
        <time>2023-11-11T20:29:37Z</time>
      </trkpt>
      <trkpt lat="47.16193" lon="-1.5582">
        <ele>32</ele>
        <time>2023-11-11T20:30:33Z</time>
      </trkpt>
      <trkpt lat="47.16189" lon="-1.55747">
        <ele>32</ele>
        <time>2023-11-11T20:31:39Z</time>
      </trkpt>
      <trkpt lat="47.16171" lon="-1.55664">
        <ele>31</ele>
        <time>2023-11-11T20:32:58Z</time>
      </trkpt>
      <trkpt lat="47.16154" lon="-1.55586">
        <ele>32</ele>
        <time>2023-11-11T20:34:13Z</time>
      </trkpt>
      <trkpt lat="47.1613" lon="-1.55514">
        <ele>32</ele>
        <time>2023-11-11T20:35:26Z</time>
      </trkpt>
      <trkpt lat="47.161" lon="-1.55207">
        <ele>32</ele>
        <time>2023-11-11T20:40:07Z</time>
      </trkpt>
      <trkpt lat="47.16147" lon="-1.54995">
        <ele>29</ele>
        <time>2023-11-11T20:43:29Z</time>
      </trkpt>
      <trkpt lat="47.16142" lon="-1.54982">
        <ele>29</ele>
        <time>2023-11-11T20:43:43Z</time>
      </trkpt>
      <trkpt lat="47.16149" lon="-1.54958">
        <ele>29</ele>
        <time>2023-11-11T20:44:07Z</time>
      </trkpt>
      <trkpt lat="47.16141" lon="-1.54937">
        <ele>29</ele>
        <time>2023-11-11T20:44:28Z</time>
      </trkpt>
      <trkpt lat="47.16137" lon="-1.54923">
        <ele>29</ele>
        <time>2023-11-11T20:44:42Z</time>
      </trkpt>
      <trkpt lat="47.16131" lon="-1.5491">
        <ele>29</ele>
        <time>2023-11-11T20:44:56Z</time>
      </trkpt>
      <trkpt lat="47.16152" lon="-1.54879">
        <ele>29</ele>
        <time>2023-11-11T20:45:36Z</time>
      </trkpt>
      <trkpt lat="47.16175" lon="-1.54849">
        <ele>29</ele>
        <time>2023-11-11T20:46:17Z</time>
      </trkpt>
      <trkpt lat="47.16199" lon="-1.54798">
        <ele>31</ele>
        <time>2023-11-11T20:47:13Z</time>
      </trkpt>
      <trkpt lat="47.16206" lon="-1.54771">
        <ele>32</ele>
        <time>2023-11-11T20:47:40Z</time>
      </trkpt>
      <trkpt lat="47.16201" lon="-1.54752">
        <ele>32</ele>
        <time>2023-11-11T20:47:58Z</time>
      </trkpt>
      <trkpt lat="47.16188" lon="-1.54746">
        <ele>32</ele>
        <time>2023-11-11T20:48:16Z</time>
      </trkpt>
      <trkpt lat="47.16178" lon="-1.54718">
        <ele>33</ele>
        <time>2023-11-11T20:48:45Z</time>
      </trkpt>
      <trkpt lat="47.16192" lon="-1.54559">
        <ele>33</ele>
        <time>2023-11-11T20:51:10Z</time>
      </trkpt>
      <trkpt lat="47.16214" lon="-1.54554">
        <ele>33</ele>
        <time>2023-11-11T20:51:40Z</time>
      </trkpt>
      <trkpt lat="47.1627" lon="-1.54446">
        <ele>34</ele>
        <time>2023-11-11T20:53:43Z</time>
      </trkpt>
      <trkpt lat="47.16234" lon="-1.54426">
        <ele>34</ele>
        <time>2023-11-11T20:54:35Z</time>
      </trkpt>
      <trkpt lat="47.16218" lon="-1.54415">
        <ele>33</ele>
        <time>2023-11-11T20:54:58Z</time>
      </trkpt>
      <trkpt lat="47.16215" lon="-1.54383">
        <ele>33</ele>
        <time>2023-11-11T20:55:28Z</time>
      </trkpt>
      <trkpt lat="47.16228" lon="-1.54305">
        <ele>35</ele>
        <time>2023-11-11T20:56:40Z</time>
      </trkpt>
      <trkpt lat="47.16241" lon="-1.54231">
        <ele>36</ele>
        <time>2023-11-11T20:57:50Z</time>
      </trkpt>
      <trkpt lat="47.16245" lon="-1.54213">
        <ele>35</ele>
        <time>2023-11-11T20:58:07Z</time>
      </trkpt>
      <trkpt lat="47.16164" lon="-1.54197">
        <ele>34</ele>
        <time>2023-11-11T20:59:56Z</time>
      </trkpt>
      <trkpt lat="47.16108" lon="-1.54157">
        <ele>33</ele>
        <time>2023-11-11T21:01:19Z</time>
      </trkpt>
      <trkpt lat="47.16213" lon="-1.53996">
        <ele>35</ele>
        <time>2023-11-11T21:04:42Z</time>
      </trkpt>
      <trkpt lat="47.16288" lon="-1.53889">
        <ele>36</ele>
        <time>2023-11-11T21:07:01Z</time>
      </trkpt>
      <trkpt lat="47.16298" lon="-1.53848">
        <ele>36</ele>
        <time>2023-11-11T21:07:41Z</time>
      </trkpt>
      <trkpt lat="47.16301" lon="-1.5376">
        <ele>37</ele>
        <time>2023-11-11T21:09:00Z</time>
      </trkpt>
      <trkpt lat="47.16286" lon="-1.53722">
        <ele>37</ele>
        <time>2023-11-11T21:09:40Z</time>
      </trkpt>
      <trkpt lat="47.16292" lon="-1.53686">
        <ele>36</ele>
        <time>2023-11-11T21:10:14Z</time>
      </trkpt>
      <trkpt lat="47.16314" lon="-1.53616">
        <ele>36</ele>
        <time>2023-11-11T21:11:24Z</time>
      </trkpt>
      <trkpt lat="47.16343" lon="-1.53578">
        <ele>36</ele>
        <time>2023-11-11T21:12:16Z</time>
      </trkpt>
      <trkpt lat="47.16335" lon="-1.53561">
        <ele>36</ele>
        <time>2023-11-11T21:12:35Z</time>
      </trkpt>
      <trkpt lat="47.16335" lon="-1.53498">
        <ele>35</ele>
        <time>2023-11-11T21:13:32Z</time>
      </trkpt>
      <trkpt lat="47.16344" lon="-1.5343">
        <ele>34</ele>
        <time>2023-11-11T21:14:35Z</time>
      </trkpt>
      <trkpt lat="47.16332" lon="-1.53377">
        <ele>33</ele>
        <time>2023-11-11T21:15:25Z</time>
      </trkpt>
      <trkpt lat="47.16308" lon="-1.5332">
        <ele>31</ele>
        <time>2023-11-11T21:16:26Z</time>
      </trkpt>
      <trkpt lat="47.16205" lon="-1.53151">
        <ele>27</ele>
        <time>2023-11-11T21:19:52Z</time>
      </trkpt>
      <trkpt lat="47.16191" lon="-1.53103">
        <ele>26</ele>
        <time>2023-11-11T21:20:39Z</time>
      </trkpt>
      <trkpt lat="47.16215" lon="-1.52938">
        <ele>23</ele>
        <time>2023-11-11T21:23:12Z</time>
      </trkpt>
      <trkpt lat="47.16247" lon="-1.52865">
        <ele>23</ele>
        <time>2023-11-11T21:24:31Z</time>
      </trkpt>
      <trkpt lat="47.16314" lon="-1.52825">
        <ele>25</ele>
        <time>2023-11-11T21:26:08Z</time>
      </trkpt>
      <trkpt lat="47.16361" lon="-1.52833">
        <ele>26</ele>
        <time>2023-11-11T21:27:11Z</time>
      </trkpt>
      <trkpt lat="47.16362" lon="-1.52784">
        <ele>24</ele>
        <time>2023-11-11T21:27:55Z</time>
      </trkpt>
      <trkpt lat="47.16355" lon="-1.52751">
        <ele>23</ele>
        <time>2023-11-11T21:28:27Z</time>
      </trkpt>
      <trkpt lat="47.16351" lon="-1.52728">
        <ele>23</ele>
        <time>2023-11-11T21:28:48Z</time>
      </trkpt>
      <trkpt lat="47.16398" lon="-1.52684">
        <ele>23</ele>
        <time>2023-11-11T21:30:03Z</time>
      </trkpt>
      <trkpt lat="47.16439" lon="-1.52649">
        <ele>23</ele>
        <time>2023-11-11T21:31:06Z</time>
      </trkpt>
      <trkpt lat="47.16489" lon="-1.52622">
        <ele>23</ele>
        <time>2023-11-11T21:32:17Z</time>
      </trkpt>
      <trkpt lat="47.1652" lon="-1.52542">
        <ele>23</ele>
        <time>2023-11-11T21:33:41Z</time>
      </trkpt>
      <trkpt lat="47.16529" lon="-1.52489">
        <ele>21</ele>
        <time>2023-11-11T21:34:30Z</time>
      </trkpt>
      <trkpt lat="47.16533" lon="-1.52477">
        <ele>20</ele>
        <time>2023-11-11T21:34:42Z</time>
      </trkpt>
      <trkpt lat="47.16543" lon="-1.52462">
        <ele>19</ele>
        <time>2023-11-11T21:35:01Z</time>
      </trkpt>
      <trkpt lat="47.1655" lon="-1.52438">
        <ele>17</ele>
        <time>2023-11-11T21:35:25Z</time>
      </trkpt>
      <trkpt lat="47.16563" lon="-1.52432">
        <ele>16</ele>
        <time>2023-11-11T21:35:43Z</time>
      </trkpt>
      <trkpt lat="47.16579" lon="-1.52447">
        <ele>17</ele>
        <time>2023-11-11T21:36:08Z</time>
      </trkpt>
      <trkpt lat="47.16604" lon="-1.52458">
        <ele>17</ele>
        <time>2023-11-11T21:36:43Z</time>
      </trkpt>
      <trkpt lat="47.16627" lon="-1.52476">
        <ele>17</ele>
        <time>2023-11-11T21:37:18Z</time>
      </trkpt>
      <trkpt lat="47.1664" lon="-1.52467">
        <ele>17</ele>
        <time>2023-11-11T21:37:37Z</time>
      </trkpt>
      <trkpt lat="47.16663" lon="-1.52534">
        <ele>17</ele>
        <time>2023-11-11T21:38:45Z</time>
      </trkpt>
      <trkpt lat="47.16686" lon="-1.52572">
        <ele>18</ele>
        <time>2023-11-11T21:39:31Z</time>
      </trkpt>
      <trkpt lat="47.16747" lon="-1.52578">
        <ele>21</ele>
        <time>2023-11-11T21:40:53Z</time>
      </trkpt>
      <trkpt lat="47.16759" lon="-1.52577">
        <ele>21</ele>
        <time>2023-11-11T21:41:09Z</time>
      </trkpt>
      <trkpt lat="47.16778" lon="-1.52571">
        <ele>20</ele>
        <time>2023-11-11T21:41:35Z</time>
      </trkpt>
      <trkpt lat="47.1679" lon="-1.52552">
        <ele>19</ele>
        <time>2023-11-11T21:41:59Z</time>
      </trkpt>
      <trkpt lat="47.16824" lon="-1.52528">
        <ele>19</ele>
        <time>2023-11-11T21:42:49Z</time>
      </trkpt>
      <trkpt lat="47.16834" lon="-1.52522">
        <ele>19</ele>
        <time>2023-11-11T21:43:03Z</time>
      </trkpt>
      <trkpt lat="47.16885" lon="-1.52493">
        <ele>19</ele>
        <time>2023-11-11T21:44:16Z</time>
      </trkpt>
      <trkpt lat="47.16914" lon="-1.52461">
        <ele>18</ele>
        <time>2023-11-11T21:45:05Z</time>
      </trkpt>
      <trkpt lat="47.16937" lon="-1.52447">
        <ele>17</ele>
        <time>2023-11-11T21:45:38Z</time>
      </trkpt>
      <trkpt lat="47.16932" lon="-1.52383">
        <ele>15</ele>
        <time>2023-11-11T21:46:36Z</time>
      </trkpt>
      <trkpt lat="47.16941" lon="-1.5231">
        <ele>14</ele>
        <time>2023-11-11T21:47:44Z</time>
      </trkpt>
      <trkpt lat="47.16943" lon="-1.52262">
        <ele>13</ele>
        <time>2023-11-11T21:48:27Z</time>
      </trkpt>
      <trkpt lat="47.16939" lon="-1.52194">
        <ele>10</ele>
        <time>2023-11-11T21:49:29Z</time>
      </trkpt>
      <trkpt lat="47.16936" lon="-1.52127">
        <ele>9</ele>
        <time>2023-11-11T21:50:30Z</time>
      </trkpt>
      <trkpt lat="47.16937" lon="-1.52084">
        <ele>9</ele>
        <time>2023-11-11T21:51:09Z</time>
      </trkpt>
      <trkpt lat="47.16942" lon="-1.52064">
        <ele>9</ele>
        <time>2023-11-11T21:51:28Z</time>
      </trkpt>
      <trkpt lat="47.16955" lon="-1.52032">
        <ele>9</ele>
        <time>2023-11-11T21:52:02Z</time>
      </trkpt>
      <trkpt lat="47.16976" lon="-1.52038">
        <ele>9</ele>
        <time>2023-11-11T21:52:31Z</time>
      </trkpt>
      <trkpt lat="47.16998" lon="-1.52059">
        <ele>9</ele>
        <time>2023-11-11T21:53:06Z</time>
      </trkpt>
      <trkpt lat="47.17026" lon="-1.52062">
        <ele>11</ele>
        <time>2023-11-11T21:53:43Z</time>
      </trkpt>
      <trkpt lat="47.17048" lon="-1.52076">
        <ele>12</ele>
        <time>2023-11-11T21:54:15Z</time>
      </trkpt>
      <trkpt lat="47.17081" lon="-1.52094">
        <ele>13</ele>
        <time>2023-11-11T21:55:02Z</time>
      </trkpt>
      <trkpt lat="47.17103" lon="-1.52105">
        <ele>14</ele>
        <time>2023-11-11T21:55:33Z</time>
      </trkpt>
      <trkpt lat="47.17138" lon="-1.52109">
        <ele>15</ele>
        <time>2023-11-11T21:56:20Z</time>
      </trkpt>
      <trkpt lat="47.17156" lon="-1.52131">
        <ele>14</ele>
        <time>2023-11-11T21:56:51Z</time>
      </trkpt>
      <trkpt lat="47.17191" lon="-1.52138">
        <ele>15</ele>
        <time>2023-11-11T21:57:38Z</time>
      </trkpt>
      <trkpt lat="47.17216" lon="-1.52172">
        <ele>15</ele>
        <time>2023-11-11T21:58:24Z</time>
      </trkpt>
      <trkpt lat="47.17248" lon="-1.5221">
        <ele>14</ele>
        <time>2023-11-11T21:59:19Z</time>
      </trkpt>
      <trkpt lat="47.17269" lon="-1.52237">
        <ele>14</ele>
        <time>2023-11-11T21:59:56Z</time>
      </trkpt>
      <trkpt lat="47.17287" lon="-1.52262">
        <ele>15</ele>
        <time>2023-11-11T22:00:29Z</time>
      </trkpt>
      <trkpt lat="47.17299" lon="-1.52263">
        <ele>16</ele>
        <time>2023-11-11T22:00:45Z</time>
      </trkpt>
      <trkpt lat="47.173" lon="-1.52278">
        <ele>15</ele>
        <time>2023-11-11T22:00:59Z</time>
      </trkpt>
      <trkpt lat="47.1731" lon="-1.52287">
        <ele>16</ele>
        <time>2023-11-11T22:01:14Z</time>
      </trkpt>
      <trkpt lat="47.17324" lon="-1.52294">
        <ele>16</ele>
        <time>2023-11-11T22:01:34Z</time>
      </trkpt>
      <trkpt lat="47.17337" lon="-1.52302">
        <ele>16</ele>
        <time>2023-11-11T22:01:53Z</time>
      </trkpt>
      <trkpt lat="47.17352" lon="-1.52309">
        <ele>16</ele>
        <time>2023-11-11T22:02:14Z</time>
      </trkpt>
      <trkpt lat="47.17368" lon="-1.5229">
        <ele>17</ele>
        <time>2023-11-11T22:02:41Z</time>
      </trkpt>
      <trkpt lat="47.17392" lon="-1.52267">
        <ele>18</ele>
        <time>2023-11-11T22:03:20Z</time>
      </trkpt>
      <trkpt lat="47.17411" lon="-1.52238">
        <ele>19</ele>
        <time>2023-11-11T22:03:56Z</time>
      </trkpt>
      <trkpt lat="47.17431" lon="-1.5221">
        <ele>19</ele>
        <time>2023-11-11T22:04:33Z</time>
      </trkpt>
      <trkpt lat="47.17426" lon="-1.52181">
        <ele>21</ele>
        <time>2023-11-11T22:05:00Z</time>
      </trkpt>
      <trkpt lat="47.17435" lon="-1.5217">
        <ele>20</ele>
        <time>2023-11-11T22:05:16Z</time>
      </trkpt>
      <trkpt lat="47.17476" lon="-1.52171">
        <ele>16</ele>
        <time>2023-11-11T22:06:10Z</time>
      </trkpt>
      <trkpt lat="47.17523" lon="-1.52161">
        <ele>13</ele>
        <time>2023-11-11T22:07:14Z</time>
      </trkpt>
      <trkpt lat="47.17544" lon="-1.52168">
        <ele>12</ele>
        <time>2023-11-11T22:07:43Z</time>
      </trkpt>
      <trkpt lat="47.17584" lon="-1.5216">
        <ele>10</ele>
        <time>2023-11-11T22:08:36Z</time>
      </trkpt>
      <trkpt lat="47.17605" lon="-1.52166">
        <ele>10</ele>
        <time>2023-11-11T22:09:05Z</time>
      </trkpt>
      <trkpt lat="47.1763" lon="-1.52172">
        <ele>9</ele>
        <time>2023-11-11T22:09:39Z</time>
      </trkpt>
      <trkpt lat="47.17654" lon="-1.5217">
        <ele>9</ele>
        <time>2023-11-11T22:10:11Z</time>
      </trkpt>
      <trkpt lat="47.17695" lon="-1.52162">
        <ele>9</ele>
        <time>2023-11-11T22:11:06Z</time>
      </trkpt>
      <trkpt lat="47.17709" lon="-1.52189">
        <ele>9</ele>
        <time>2023-11-11T22:11:37Z</time>
      </trkpt>
      <trkpt lat="47.17723" lon="-1.52218">
        <ele>9</ele>
        <time>2023-11-11T22:12:09Z</time>
      </trkpt>
      <trkpt lat="47.17768" lon="-1.52201">
        <ele>9</ele>
        <time>2023-11-11T22:13:11Z</time>
      </trkpt>
      <trkpt lat="47.17865" lon="-1.52117">
        <ele>7</ele>
        <time>2023-11-11T22:15:41Z</time>
      </trkpt>
      <trkpt lat="47.17887" lon="-1.52106">
        <ele>7</ele>
        <time>2023-11-11T22:16:12Z</time>
      </trkpt>
      <trkpt lat="47.17902" lon="-1.52087">
        <ele>5</ele>
        <time>2023-11-11T22:16:39Z</time>
      </trkpt>
      <trkpt lat="47.17929" lon="-1.52096">
        <ele>5</ele>
        <time>2023-11-11T22:17:16Z</time>
      </trkpt>
      <trkpt lat="47.17951" lon="-1.52133">
        <ele>6</ele>
        <time>2023-11-11T22:18:00Z</time>
      </trkpt>
      <trkpt lat="47.17969" lon="-1.52194">
        <ele>6</ele>
        <time>2023-11-11T22:19:01Z</time>
      </trkpt>
      <trkpt lat="47.17977" lon="-1.52239">
        <ele>6</ele>
        <time>2023-11-11T22:19:43Z</time>
      </trkpt>
      <trkpt lat="47.17982" lon="-1.52302">
        <ele>6</ele>
        <time>2023-11-11T22:20:40Z</time>
      </trkpt>
      <trkpt lat="47.18002" lon="-1.52376">
        <ele>6</ele>
        <time>2023-11-11T22:21:53Z</time>
      </trkpt>
      <trkpt lat="47.18014" lon="-1.52439">
        <ele>7</ele>
        <time>2023-11-11T22:22:52Z</time>
      </trkpt>
      <trkpt lat="47.1799" lon="-1.52463">
        <ele>8</ele>
        <time>2023-11-11T22:23:31Z</time>
      </trkpt>
      <trkpt lat="47.17957" lon="-1.52529">
        <ele>9</ele>
        <time>2023-11-11T22:24:45Z</time>
      </trkpt>
      <trkpt lat="47.17997" lon="-1.52601">
        <ele>9</ele>
        <time>2023-11-11T22:26:09Z</time>
      </trkpt>
      <trkpt lat="47.18016" lon="-1.5263">
        <ele>9</ele>
        <time>2023-11-11T22:26:46Z</time>
      </trkpt>
      <trkpt lat="47.18087" lon="-1.52565">
        <ele>6</ele>
        <time>2023-11-11T22:28:37Z</time>
      </trkpt>
      <trkpt lat="47.18137" lon="-1.52564">
        <ele>6</ele>
        <time>2023-11-11T22:29:44Z</time>
      </trkpt>
      <trkpt lat="47.18141" lon="-1.52599">
        <ele>6</ele>
        <time>2023-11-11T22:30:16Z</time>
      </trkpt>
      <trkpt lat="47.18164" lon="-1.52708">
        <ele>8</ele>
        <time>2023-11-11T22:32:00Z</time>
      </trkpt>
      <trkpt lat="47.18173" lon="-1.52743">
        <ele>8</ele>
        <time>2023-11-11T22:32:34Z</time>
      </trkpt>
    </trkseg>
  </trk>
</gpx>